Terminal Aerodrome Forecast
Issued by NWS

Home | Current Version | Previous Version | Text Only | Print | Product List | Glossary On
Versions: 1 2 3 4 5 6 7 8 9 10 11 12 13 14 15 16 17 18
000
FTUS45 KREV 080112 AAA
TAFMMH
TAF AMD
KMMH 080112Z 0801/0824 28005KT P6SM VCSH BKN090 OVC110
      TEMPO 0801/0803 2SM RA BR BKN040
     FM080400 VRB04KT P6SM SCT100 BKN200
     FM081900 14010KT P6SM VCTS SCT040CB BKN060=

USA.gov is the U.S. government's official web portal to all federal, state and local government web resources and services.